»·PEaware :: N550EA NV11-KTOA

N550EA :: NV11-KTOA

FLIGHT INFORMATION

Flight Status: Arrived
Operator: Privately registered:
United States
More flights under this callsign
Pilot: Mark P. (13279)
Aircraft: Unknown
(EA55)
More flights by this aircraft type
Origin: NV11 Yucca Airstrip
United States
Destination: KTOA Zamperini
United States
More flights between these airports :: More routes between these airports
Route:
File this flight plan on PilotEdge
Remarks:
Altitude:
(Current/Filed)
30,000ft
Speed:
(Current/Filed)
320kts
Departed: 15-Dec-16 04:58 AM
Arrived: 15-Dec-16 05:51 AM
Distance/Time
Traveled:
220nm/0:53
Distance/Time
To Go:
Arrived

Flight Plot

Page will automatically refresh every two minutes.


Map Options




Map Legend


Flown Route
Filed Route
Departure Airport
Arrival Airport
Navaid (VOR, NDB)
Fix

Horizontal Profiles

Position Reports

Time Latitude Longitude Heading Altitude Ground
Speed
15-Dec-16 04:49 36.870443 -116.016572 189 8547ft 284kts
15-Dec-16 04:50 36.792336 -116.023252 189 12630ft 282kts
15-Dec-16 04:51 36.712397 -116.028104 189 15469ft 295kts
15-Dec-16 04:52 36.629415 -116.032537 191 17748ft 303kts
15-Dec-16 04:53 36.544700 -116.039664 191 19573ft 312kts
15-Dec-16 04:54 36.457112 -116.046411 191 21053ft 319kts
15-Dec-16 04:55 36.367864 -116.052792 191 22250ft 324kts
15-Dec-16 04:56 36.276885 -116.058892 191 23223ft 329kts
15-Dec-16 04:57 36.185159 -116.064715 191 24012ft 333kts
15-Dec-16 04:58 36.092165 -116.072702 193 24583ft 337kts
15-Dec-16 04:59 35.999611 -116.082347 193 25259ft 335kts
15-Dec-16 05:00 35.906416 -116.091529 193 25986ft 333kts
15-Dec-16 05:01 35.822117 -116.099337 193 26709ft 332kts
15-Dec-16 05:02 35.730485 -116.107252 193 27533ft 330kts
15-Dec-16 05:03 35.639202 -116.114518 193 28388ft 329kts
15-Dec-16 05:04 35.548967 -116.121066 193 29268ft 327kts
15-Dec-16 05:05 35.457647 -116.127053 193 30091ft 328kts
15-Dec-16 05:06 35.363831 -116.133573 193 30117ft 343kts
15-Dec-16 05:07 35.267602 -116.126871 158 30111ft 390kts
15-Dec-16 05:08 35.186883 -116.074057 229 30066ft 313kts
15-Dec-16 05:09 35.182571 -116.168089 279 30161ft 312kts
15-Dec-16 05:10 35.146894 -116.260907 238 30112ft 306kts
15-Dec-16 05:11 35.098680 -116.344965 238 30112ft 304kts
15-Dec-16 05:12 35.049912 -116.430078 238 30109ft 304kts
15-Dec-16 05:13 35.001736 -116.514972 238 30099ft 307kts
15-Dec-16 05:14 34.959726 -116.605687 246 30092ft 309kts
15-Dec-16 05:15 34.925189 -116.701210 246 30100ft 313kts
15-Dec-16 05:16 34.891866 -116.794984 246 30104ft 316kts
15-Dec-16 05:17 34.856149 -116.882789 241 30103ft 318kts
15-Dec-16 05:18 34.810796 -116.974699 239 30105ft 316kts
15-Dec-16 05:19 34.766784 -117.064770 239 30108ft 314kts
15-Dec-16 05:20 34.721328 -117.157758 237 28580ft 317kts
15-Dec-16 05:21 34.673045 -117.249230 237 26967ft 323kts
15-Dec-16 05:22 34.624357 -117.341456 237 25343ft 329kts
15-Dec-16 05:23 34.574447 -117.436006 237 23619ft 331kts
15-Dec-16 05:24 34.525743 -117.528248 238 21903ft 331kts
15-Dec-16 05:25 34.475107 -117.621401 236 20154ft 325kts
15-Dec-16 05:26 34.424144 -117.709815 235 18412ft 320kts
15-Dec-16 05:27 34.373894 -117.798180 236 16607ft 315kts
15-Dec-16 05:28 34.325659 -117.885093 236 14808ft 309kts
15-Dec-16 05:29 34.279169 -117.969517 236 13024ft 303kts
15-Dec-16 05:30 34.232740 -118.053936 236 11203ft 297kts
15-Dec-16 05:31 34.187370 -118.136346 237 9390ft 292kts
15-Dec-16 05:32 34.153412 -118.197944 237 7865ft 255kts
15-Dec-16 05:33 34.114593 -118.268354 237 6332ft 252kts
15-Dec-16 05:34 34.076453 -118.337396 237 5122ft 249kts
15-Dec-16 05:35 34.041061 -118.401286 237 3921ft 249kts
15-Dec-16 05:36 33.976965 -118.421290 163 2574ft 229kts
15-Dec-16 05:37 33.939859 -118.388792 144 2510ft 127kts
15-Dec-16 05:38 33.911126 -118.365024 148 2517ft 125kts
15-Dec-16 05:39 33.880825 -118.348013 207 2524ft 122kts
15-Dec-16 05:40 33.857283 -118.371458 221 1993ft 100kts
15-Dec-16 05:41 33.838587 -118.388097 185 1481ft 101kts
15-Dec-16 05:42 33.820726 -118.362792 135 713ft 109kts
15-Dec-16 05:43 33.804267 -118.339811 127 107ft 33kts
15-Dec-16 05:44 33.800066 -118.335630 179 107ft 16kts
15-Dec-16 05:45 33.799346 -118.337222 217 107ft 6kts
15-Dec-16 05:46 33.799353 -118.338297 2 107ft 0kts
15-Dec-16 05:47 33.799353 -118.338297 2 107ft 0kts
15-Dec-16 05:48 33.799353 -118.338297 2 107ft 0kts
15-Dec-16 05:49 33.799353 -118.338297 2 107ft 0kts
15-Dec-16 05:50 33.799353 -118.338297 2 107ft 0kts
15-Dec-16 05:51 33.799353 -118.338297 2 107ft 0kts
15-Dec-16 05:52 33.799353 -118.338297 2 107ft 0kts
15-Dec-16 05:53 33.799353 -118.338297 2 107ft 0kts
15-Dec-16 05:54 33.799353 -118.338297 2 107ft 0kts
15-Dec-16 05:55 33.799353 -118.338297 2 107ft 0kts

Navigation Log

Ident Type
Flight plan parsing failed, navigation log unavailable